createdAt,value
2023-02-28T00:01:51.685Z,12.67
2023-02-28T00:04:18.023Z,12.34
2023-02-28T00:06:44.323Z,12.28
2023-02-28T00:09:10.611Z,12.26
2023-02-28T00:11:36.919Z,12.82
2023-02-28T00:14:03.193Z,11.92
2023-02-28T00:16:29.488Z,12.62
2023-02-28T00:18:55.838Z,12.24
2023-02-28T00:21:22.156Z,12.37
2023-02-28T00:23:48.461Z,12.33
2023-02-28T00:26:14.754Z,12.26
2023-02-28T00:28:41.050Z,12.55
2023-02-28T00:31:07.389Z,12.52
2023-02-28T00:33:33.806Z,12.32
2023-02-28T00:36:00.197Z,12.90
2023-02-28T00:38:26.610Z,12.29
2023-02-28T00:40:52.908Z,11.92
2023-02-28T00:43:19.198Z,12.90
2023-02-28T00:45:45.503Z,12.71
2023-02-28T00:48:11.820Z,12.33
2023-02-28T00:50:38.115Z,12.21
2023-02-28T00:53:04.406Z,12.72
2023-02-28T00:55:30.714Z,12.56
2023-02-28T00:57:57.012Z,13.44
2023-02-28T01:00:23.297Z,12.57
2023-02-28T01:02:49.601Z,12.84
2023-02-28T01:05:15.906Z,12.82
2023-02-28T01:07:42.197Z,13.07
2023-02-28T01:10:08.506Z,12.76
2023-02-28T01:12:34.800Z,13.03
2023-02-28T01:15:01.110Z,13.28
2023-02-28T01:17:27.479Z,12.80
2023-02-28T01:19:53.792Z,12.81
2023-02-28T01:22:20.067Z,12.50
2023-02-28T01:24:48.302Z,12.78
2023-02-28T01:27:14.706Z,13.03
2023-02-28T01:29:40.989Z,13.00
2023-02-28T01:32:07.331Z,13.34
2023-02-28T01:34:33.679Z,13.30
2023-02-28T01:36:59.991Z,13.07
2023-02-28T01:39:26.350Z,13.70
2023-02-28T01:41:52.641Z,13.78
2023-02-28T01:44:18.934Z,13.40
2023-02-28T01:46:45.311Z,13.50
2023-02-28T01:49:11.625Z,13.38
2023-02-28T01:51:37.905Z,14.13
2023-02-28T01:54:04.233Z,14.21
2023-02-28T01:56:30.525Z,14.35
2023-02-28T01:58:56.828Z,14.23
2023-02-28T02:01:23.230Z,14.45
2023-02-28T02:03:49.570Z,14.67
2023-02-28T02:06:15.872Z,14.00
2023-02-28T02:08:42.175Z,14.12
2023-02-28T02:11:08.480Z,14.71
2023-02-28T02:13:34.768Z,14.10
2023-02-28T02:16:01.108Z,15.08
2023-02-28T02:18:27.410Z,15.44
2023-02-28T02:20:53.709Z,15.19
2023-02-28T02:23:20.021Z,14.84
2023-02-28T02:25:46.324Z,14.82
2023-02-28T02:28:12.633Z,14.64
2023-02-28T02:30:38.940Z,15.11
2023-02-28T02:33:05.262Z,15.44
2023-02-28T02:35:31.576Z,15.69
2023-02-28T02:37:57.918Z,15.06
2023-02-28T02:40:24.216Z,15.59
2023-02-28T02:42:50.516Z,15.16
2023-02-28T02:45:16.875Z,15.61
2023-02-28T02:47:43.192Z,15.60
2023-02-28T02:50:09.491Z,15.93
2023-02-28T02:52:35.806Z,15.58
2023-02-28T02:55:02.109Z,15.87
2023-02-28T02:57:28.393Z,15.18
2023-02-28T02:59:54.716Z,15.89
2023-02-28T03:02:21.028Z,15.87
2023-02-28T03:04:47.341Z,15.86
2023-02-28T03:07:13.657Z,16.12
2023-02-28T03:09:39.946Z,16.72
2023-02-28T03:12:06.238Z,16.04
2023-02-28T03:14:32.549Z,16.31
2023-02-28T03:16:58.845Z,16.53
2023-02-28T03:19:25.187Z,16.36
2023-02-28T03:21:51.506Z,16.25
2023-02-28T03:24:17.805Z,16.27
2023-02-28T03:26:44.097Z,16.76
2023-02-28T03:29:10.424Z,16.77
2023-02-28T03:31:36.751Z,16.97
2023-02-28T03:34:03.071Z,17.06
2023-02-28T03:36:29.385Z,16.85
2023-02-28T03:38:55.684Z,16.35
2023-02-28T03:41:21.989Z,17.06
2023-02-28T03:43:48.434Z,17.07
2023-02-28T03:46:14.820Z,16.49
2023-02-28T03:48:41.148Z,16.63
2023-02-28T03:51:07.507Z,17.47
2023-02-28T03:53:33.801Z,17.54
2023-02-28T03:56:00.100Z,16.89
2023-02-28T03:58:26.554Z,17.44
2023-02-28T04:00:52.848Z,17.18
2023-02-28T04:03:19.143Z,16.76
2023-02-28T04:05:45.448Z,17.38
2023-02-28T04:08:11.746Z,17.90
2023-02-28T04:10:38.040Z,17.78
2023-02-28T04:13:04.347Z,17.64
2023-02-28T04:15:30.652Z,17.30
2023-02-28T04:17:56.934Z,17.84
2023-02-28T04:20:23.237Z,17.53
2023-02-28T04:22:49.522Z,17.47
2023-02-28T04:25:15.822Z,17.39
2023-02-28T04:27:42.145Z,17.44
2023-02-28T04:30:08.436Z,17.33
2023-02-28T04:32:34.779Z,17.34
2023-02-28T04:35:01.151Z,17.92
2023-02-28T04:37:27.474Z,17.65
2023-02-28T04:39:53.780Z,17.98
2023-02-28T04:42:20.097Z,18.68
2023-02-28T04:44:46.394Z,17.90
2023-02-28T04:47:12.720Z,17.42
2023-02-28T04:49:39.040Z,18.27
2023-02-28T04:52:05.340Z,17.85
2023-02-28T04:54:31.661Z,18.23
2023-02-28T04:56:58.031Z,18.38
2023-02-28T04:59:24.415Z,18.46
2023-02-28T05:01:50.703Z,18.34
2023-02-28T05:04:17.021Z,18.22
2023-02-28T05:06:43.329Z,18.64
2023-02-28T05:09:09.616Z,19.15
2023-02-28T05:11:36.018Z,18.73
2023-02-28T05:14:02.423Z,18.33
2023-02-28T05:16:28.761Z,18.62
2023-02-28T05:18:55.137Z,18.82
2023-02-28T05:21:21.433Z,19.96
2023-02-28T05:23:48.218Z,19.13
2023-02-28T05:26:14.562Z,19.43
2023-02-28T05:28:40.864Z,19.09
2023-02-28T05:31:07.218Z,19.46
2023-02-28T05:33:33.553Z,19.87
2023-02-28T05:35:59.899Z,19.65
2023-02-28T05:38:26.235Z,19.23
2023-02-28T05:40:52.541Z,19.44
2023-02-28T05:43:18.829Z,19.42
2023-02-28T05:45:45.218Z,19.45
2023-02-28T05:48:11.569Z,19.96
2023-02-28T05:50:37.863Z,19.45
2023-02-28T05:53:04.168Z,20.35
2023-02-28T05:55:30.504Z,20.67
2023-02-28T05:57:56.802Z,20.24
2023-02-28T06:00:23.101Z,20.02
2023-02-28T06:02:49.463Z,20.19
2023-02-28T06:05:15.766Z,20.40
2023-02-28T06:07:42.073Z,20.42
2023-02-28T06:10:08.371Z,21.02
2023-02-28T06:12:34.675Z,21.42
2023-02-28T06:15:00.967Z,21.26
2023-02-28T06:17:27.283Z,21.75
2023-02-28T06:19:53.588Z,22.00
2023-02-28T06:22:19.872Z,21.58
2023-02-28T06:24:46.246Z,21.74
2023-02-28T06:27:12.571Z,22.46
2023-02-28T06:29:38.865Z,21.84
2023-02-28T06:32:05.197Z,21.93
2023-02-28T06:34:31.538Z,22.50
2023-02-28T06:36:57.834Z,22.27
2023-02-28T06:39:24.137Z,21.96
2023-02-28T06:41:55.432Z,21.90
2023-02-28T06:44:22.458Z,21.91
2023-02-28T06:46:48.781Z,21.92
2023-02-28T06:49:15.068Z,21.85
2023-02-28T06:51:41.351Z,22.18
2023-02-28T06:54:07.672Z,21.60
2023-02-28T06:56:34.000Z,22.28
2023-02-28T06:59:00.296Z,22.66
2023-02-28T07:01:26.687Z,22.31
2023-02-28T07:03:53.161Z,21.75
2023-02-28T07:06:19.518Z,21.64
2023-02-28T07:08:45.864Z,22.27
2023-02-28T07:11:12.151Z,21.91
2023-02-28T07:13:38.455Z,21.95
2023-02-28T07:16:04.821Z,22.32
2023-02-28T07:18:31.260Z,23.09
2023-02-28T07:20:57.544Z,22.61
2023-02-28T07:23:23.862Z,22.63
2023-02-28T07:25:50.179Z,22.21
2023-02-28T07:28:16.480Z,22.35
2023-02-28T07:30:42.796Z,22.06
2023-02-28T07:33:09.095Z,23.32
2023-02-28T07:35:35.430Z,22.43
2023-02-28T07:38:01.745Z,22.55
2023-02-28T07:40:28.107Z,22.18
2023-02-28T07:42:54.478Z,22.55
2023-02-28T07:45:20.816Z,22.03
2023-02-28T07:47:47.125Z,22.31
2023-02-28T07:50:13.412Z,22.44
2023-02-28T07:52:39.711Z,22.49
2023-02-28T07:55:06.012Z,22.12
2023-02-28T07:57:33.807Z,23.07
2023-02-28T08:00:00.144Z,23.18
2023-02-28T08:02:26.455Z,22.73
2023-02-28T08:04:52.757Z,22.39
2023-02-28T08:07:19.130Z,21.61
2023-02-28T08:09:45.442Z,22.68
2023-02-28T08:12:11.737Z,22.10
2023-02-28T08:14:38.084Z,21.69
2023-02-28T08:17:04.391Z,21.47
2023-02-28T08:19:30.676Z,21.19
2023-02-28T08:21:56.974Z,21.47
2023-02-28T08:24:23.269Z,21.27
2023-02-28T08:26:49.557Z,21.65
2023-02-28T08:29:15.904Z,22.06
2023-02-28T08:31:42.238Z,20.93
2023-02-28T08:34:08.538Z,21.45
2023-02-28T08:36:34.850Z,21.66
2023-02-28T08:39:01.150Z,21.55
2023-02-28T08:41:27.590Z,21.72
2023-02-28T08:43:53.994Z,20.97
2023-02-28T08:46:20.352Z,21.00
2023-02-28T08:48:46.674Z,21.79
2023-02-28T08:51:12.984Z,22.43
2023-02-28T08:53:39.288Z,21.33
2023-02-28T08:56:05.587Z,20.75
2023-02-28T08:58:31.906Z,21.58
2023-02-28T09:00:58.271Z,20.89
2023-02-28T09:03:25.387Z,21.35
2023-02-28T09:05:51.745Z,22.04
2023-02-28T09:08:18.046Z,21.79
2023-02-28T09:10:44.353Z,21.03
2023-02-28T09:13:10.666Z,21.75
2023-02-28T09:15:36.959Z,21.90
2023-02-28T09:18:03.257Z,21.57
2023-02-28T09:20:29.618Z,21.51
2023-02-28T09:22:56.005Z,20.91
2023-02-28T09:25:22.316Z,20.85
2023-02-28T09:27:48.659Z,20.90
2023-02-28T09:30:14.958Z,20.93
2023-02-28T09:32:41.246Z,21.48
2023-02-28T09:35:07.567Z,20.97
2023-02-28T09:37:33.864Z,21.20
2023-02-28T09:40:00.182Z,21.51
2023-02-28T09:42:26.514Z,20.51
2023-02-28T09:44:52.799Z,20.53
2023-02-28T09:47:19.113Z,20.86
2023-02-28T09:49:45.415Z,21.01
2023-02-28T09:52:11.709Z,21.07
2023-02-28T09:54:38.016Z,20.81
2023-02-28T09:57:04.357Z,19.81
2023-02-28T09:59:30.653Z,21.12
2023-02-28T10:01:57.032Z,21.48
2023-02-28T10:04:23.492Z,21.50
2023-02-28T10:06:49.797Z,20.41
2023-02-28T10:09:16.110Z,21.01
2023-02-28T10:11:42.417Z,20.75
2023-02-28T10:14:08.704Z,20.59
2023-02-28T10:16:34.978Z,20.11
2023-02-28T10:19:03.142Z,20.18
2023-02-28T10:21:29.432Z,19.66
2023-02-28T10:23:55.733Z,18.86
2023-02-28T10:26:22.089Z,17.90
2023-02-28T10:28:48.446Z,18.91
2023-02-28T10:31:14.800Z,19.10
2023-02-28T10:33:41.113Z,19.18
2023-02-28T10:36:07.484Z,18.69
2023-02-28T10:38:33.890Z,18.70
2023-02-28T10:41:00.215Z,18.89
2023-02-28T10:43:26.505Z,18.80
2023-02-28T10:45:52.805Z,19.37
2023-02-28T10:48:19.121Z,18.99
2023-02-28T10:50:45.424Z,19.29
2023-02-28T10:53:11.710Z,19.10
2023-02-28T10:55:38.024Z,18.51
2023-02-28T10:58:04.566Z,19.27
2023-02-28T11:00:31.010Z,19.67
2023-02-28T11:02:57.381Z,18.66
2023-02-28T11:05:23.679Z,19.61
2023-02-28T11:07:53.475Z,20.34
2023-02-28T11:10:19.980Z,20.30
2023-02-28T11:12:52.278Z,20.23
2023-02-28T11:15:19.481Z,19.71
2023-02-28T11:17:45.833Z,19.56
2023-02-28T11:20:12.131Z,19.55
2023-02-28T11:22:38.500Z,19.53
2023-02-28T11:25:04.819Z,20.02
2023-02-28T11:27:31.202Z,19.75
2023-02-28T11:29:57.532Z,19.52
2023-02-28T11:32:23.941Z,19.70
2023-02-28T11:34:50.378Z,19.58
2023-02-28T11:37:16.676Z,19.53
2023-02-28T11:39:43.049Z,19.64
2023-02-28T11:42:09.343Z,20.49
2023-02-28T11:44:35.680Z,20.09
2023-02-28T11:47:01.999Z,20.25
2023-02-28T11:49:28.301Z,19.92
2023-02-28T11:51:54.590Z,19.78
2023-02-28T11:54:20.906Z,19.77
2023-02-28T11:56:47.230Z,20.18
2023-02-28T11:59:13.601Z,20.10
2023-02-28T12:01:39.922Z,20.09
2023-02-28T12:04:06.218Z,19.96
2023-02-28T12:06:32.535Z,20.25
2023-02-28T12:08:58.841Z,19.98
2023-02-28T12:11:25.122Z,20.73
2023-02-28T12:13:51.414Z,19.94
2023-02-28T12:16:17.770Z,20.19
2023-02-28T12:18:44.067Z,20.25
2023-02-28T12:21:10.349Z,20.35
2023-02-28T12:23:36.656Z,20.13
2023-02-28T12:26:02.962Z,19.94
2023-02-28T12:28:29.298Z,19.58
2023-02-28T12:30:55.607Z,19.57
2023-02-28T12:33:21.929Z,19.24
2023-02-28T12:35:48.249Z,19.43
2023-02-28T12:38:14.613Z,19.92
2023-02-28T12:40:42.019Z,19.28
2023-02-28T12:43:08.341Z,19.68
2023-02-28T12:45:34.673Z,19.57
2023-02-28T12:48:01.009Z,19.78
2023-02-28T12:50:27.322Z,19.54
2023-02-28T12:52:53.641Z,19.64
2023-02-28T12:55:19.944Z,19.38
2023-02-28T12:57:46.244Z,19.72
2023-02-28T13:00:12.701Z,20.11
2023-02-28T13:02:39.045Z,19.77
2023-02-28T13:05:05.374Z,19.98
2023-02-28T13:07:31.689Z,19.84
2023-02-28T13:09:57.982Z,19.80
2023-02-28T13:12:24.283Z,20.72
2023-02-28T13:14:50.614Z,20.30
2023-02-28T13:17:16.906Z,20.29
2023-02-28T13:19:43.209Z,19.58
2023-02-28T13:22:09.512Z,20.41
2023-02-28T13:24:35.869Z,20.23
2023-02-28T13:27:02.180Z,20.32
2023-02-28T13:29:28.512Z,20.74
2023-02-28T13:31:54.859Z,20.41
2023-02-28T13:34:21.169Z,20.14
2023-02-28T13:36:47.482Z,20.17
2023-02-28T13:39:13.810Z,20.35
2023-02-28T13:41:40.136Z,20.49
2023-02-28T13:44:06.716Z,21.58
2023-02-28T13:46:33.107Z,21.36
2023-02-28T13:48:59.492Z,20.94
2023-02-28T13:51:25.797Z,21.09
2023-02-28T13:53:52.313Z,21.24
2023-02-28T13:56:18.615Z,20.91
2023-02-28T13:58:44.926Z,21.06
2023-02-28T14:01:11.240Z,21.15
2023-02-28T14:03:37.589Z,20.95
2023-02-28T14:06:03.914Z,21.13
2023-02-28T14:08:30.199Z,20.70
2023-02-28T14:10:56.489Z,21.04
2023-02-28T14:13:22.797Z,21.11
2023-02-28T14:15:49.409Z,20.78
2023-02-28T14:18:15.899Z,20.89
2023-02-28T14:20:42.231Z,20.32
2023-02-28T14:23:08.532Z,20.73
2023-02-28T14:25:34.820Z,20.73
2023-02-28T14:28:01.139Z,20.88
2023-02-28T14:30:27.435Z,21.12
2023-02-28T14:32:53.732Z,20.92
2023-02-28T14:35:20.050Z,20.73
2023-02-28T14:37:46.336Z,20.47
2023-02-28T14:40:12.642Z,20.81
2023-02-28T14:42:38.967Z,21.10
2023-02-28T14:45:05.287Z,20.66
2023-02-28T14:47:31.583Z,20.69
2023-02-28T14:49:57.922Z,21.04
2023-02-28T14:52:24.219Z,20.67
2023-02-28T14:54:50.514Z,20.26
2023-02-28T14:57:16.825Z,20.76
2023-02-28T14:59:43.108Z,21.56
2023-02-28T15:02:09.400Z,21.53
2023-02-28T15:04:35.727Z,21.15
2023-02-28T15:07:02.031Z,20.34
2023-02-28T15:09:28.325Z,20.95
2023-02-28T15:11:54.641Z,20.69
2023-02-28T15:14:20.943Z,21.24
2023-02-28T15:16:47.297Z,20.78
2023-02-28T15:19:13.641Z,20.73
2023-02-28T15:21:39.929Z,19.75
2023-02-28T15:24:06.222Z,20.97
2023-02-28T15:26:32.758Z,20.38
2023-02-28T15:28:59.096Z,20.03
2023-02-28T15:31:25.429Z,20.67
2023-02-28T15:33:51.812Z,20.59
2023-02-28T15:36:18.148Z,20.33
2023-02-28T15:38:44.493Z,19.87
2023-02-28T15:41:10.801Z,20.06
2023-02-28T15:43:37.101Z,19.87
2023-02-28T15:46:03.476Z,20.52
2023-02-28T15:48:29.893Z,20.09
2023-02-28T15:50:56.189Z,19.60
2023-02-28T15:53:22.500Z,19.99
2023-02-28T15:55:48.855Z,20.45
2023-02-28T15:58:15.147Z,21.30
2023-02-28T16:00:41.445Z,20.56
2023-02-28T16:03:07.887Z,20.35
2023-02-28T16:05:34.382Z,20.37
2023-02-28T16:08:00.684Z,20.50
2023-02-28T16:10:27.002Z,20.03
2023-02-28T16:12:53.294Z,20.87
2023-02-28T16:15:19.615Z,20.41
2023-02-28T16:17:45.921Z,20.50
2023-02-28T16:20:12.211Z,20.33
2023-02-28T16:22:38.509Z,20.80
2023-02-28T16:25:04.850Z,20.84
2023-02-28T16:27:31.141Z,21.21
2023-02-28T16:29:57.433Z,20.77
2023-02-28T16:32:23.801Z,20.68
2023-02-28T16:34:50.134Z,20.42
2023-02-28T16:37:16.430Z,21.05
2023-02-28T16:39:42.743Z,20.51
2023-02-28T16:42:09.053Z,21.08
2023-02-28T16:44:35.362Z,21.03
2023-02-28T16:47:01.694Z,21.93
2023-02-28T16:49:28.023Z,21.04
2023-02-28T16:51:54.421Z,20.98
2023-02-28T16:54:20.740Z,21.37
2023-02-28T16:56:47.054Z,21.48
2023-02-28T16:59:13.372Z,21.61
2023-02-28T17:01:39.975Z,21.06
2023-02-28T17:04:06.327Z,21.09
2023-02-28T17:06:32.937Z,20.98
2023-02-28T17:08:59.362Z,21.24
2023-02-28T17:11:25.661Z,21.81
2023-02-28T17:13:51.949Z,22.22
2023-02-28T17:16:18.277Z,21.93
2023-02-28T17:18:44.681Z,21.42
2023-02-28T17:21:10.995Z,20.62
2023-02-28T17:23:37.335Z,22.03
2023-02-28T17:26:03.639Z,21.95
2023-02-28T17:28:29.938Z,21.59
2023-02-28T17:30:56.286Z,21.64
2023-02-28T17:33:22.587Z,21.56
2023-02-28T17:35:48.932Z,22.73
2023-02-28T17:38:15.290Z,22.55
2023-02-28T17:40:41.596Z,22.11
2023-02-28T17:43:08.039Z,22.14
2023-02-28T17:45:34.363Z,22.60
2023-02-28T17:48:00.662Z,22.59
2023-02-28T17:50:26.969Z,22.59
2023-02-28T17:52:53.287Z,22.50
2023-02-28T17:55:19.586Z,22.99
2023-02-28T17:57:45.898Z,22.86
2023-02-28T18:00:12.214Z,23.02
2023-02-28T18:02:38.545Z,23.20
2023-02-28T18:05:04.892Z,23.08
2023-02-28T18:07:31.304Z,23.73
2023-02-28T18:09:57.599Z,23.28
2023-02-28T18:12:23.891Z,23.40
2023-02-28T18:14:50.199Z,22.81
2023-02-28T18:17:16.489Z,23.45
2023-02-28T18:19:42.805Z,24.14
2023-02-28T18:22:09.128Z,23.70
2023-02-28T18:24:35.432Z,24.37
2023-02-28T18:27:01.725Z,23.04
2023-02-28T18:29:28.038Z,23.80
2023-02-28T18:31:54.501Z,24.42
2023-02-28T18:34:20.882Z,24.48
2023-02-28T18:36:47.213Z,24.94
2023-02-28T18:39:13.545Z,25.00
2023-02-28T18:41:39.945Z,25.48
2023-02-28T18:44:17.712Z,24.70
2023-02-28T18:46:46.049Z,24.83
2023-02-28T18:49:12.436Z,25.26
2023-02-28T18:51:38.741Z,24.89
2023-02-28T18:54:05.029Z,25.23
2023-02-28T18:56:31.511Z,26.55
2023-02-28T18:58:57.920Z,26.42
2023-02-28T19:01:24.207Z,26.54
2023-02-28T19:03:50.570Z,26.67
2023-02-28T19:06:16.884Z,28.09
2023-02-28T19:08:43.189Z,28.14
2023-02-28T19:11:09.551Z,28.06
2023-02-28T19:13:35.840Z,28.44
2023-02-28T19:16:02.203Z,28.68
2023-02-28T19:18:28.511Z,28.26
2023-02-28T19:20:54.787Z,28.19
2023-02-28T19:23:21.135Z,28.05
2023-02-28T19:25:47.441Z,27.52
2023-02-28T19:28:13.735Z,28.16
2023-02-28T19:30:40.033Z,28.32
2023-02-28T19:33:06.330Z,28.59
2023-02-28T19:35:32.617Z,28.73
2023-02-28T19:37:59.634Z,28.90
2023-02-28T19:40:26.210Z,29.72
2023-02-28T19:42:52.509Z,29.53
2023-02-28T19:45:18.801Z,29.73
2023-02-28T19:47:45.151Z,29.35
2023-02-28T19:50:11.453Z,30.03
2023-02-28T19:52:37.736Z,30.04
2023-02-28T19:55:04.038Z,30.39
2023-02-28T19:57:30.342Z,30.78
2023-02-28T19:59:56.699Z,29.78
2023-02-28T20:02:23.019Z,29.84
2023-02-28T20:04:49.392Z,29.54
2023-02-28T20:07:15.815Z,29.60
2023-02-28T20:09:42.139Z,30.20
2023-02-28T20:12:17.900Z,29.65
2023-02-28T20:14:49.701Z,30.94
2023-02-28T20:17:16.036Z,32.06
2023-02-28T20:19:42.405Z,31.80
2023-02-28T20:22:08.725Z,31.20
2023-02-28T20:24:35.051Z,31.15
2023-02-28T20:27:01.347Z,31.17
2023-02-28T20:29:27.672Z,31.11
2023-02-28T20:31:53.976Z,31.86
2023-02-28T20:34:20.278Z,33.11
2023-02-28T20:36:46.579Z,32.48
2023-02-28T20:39:12.870Z,31.53
2023-02-28T20:41:39.184Z,31.59
2023-02-28T20:44:05.515Z,32.51
2023-02-28T20:46:32.302Z,33.00
2023-02-28T20:48:58.803Z,34.15
2023-02-28T20:51:25.117Z,34.31
2023-02-28T20:53:51.407Z,34.72
2023-02-28T20:56:17.703Z,34.16
2023-02-28T20:58:44.024Z,33.58
2023-02-28T21:01:10.359Z,34.57
2023-02-28T21:03:36.677Z,34.26
2023-02-28T21:06:03.005Z,33.97
2023-02-28T21:08:29.302Z,34.92
2023-02-28T21:10:55.607Z,34.57
2023-02-28T21:13:21.899Z,34.84
2023-02-28T21:15:48.254Z,34.78
2023-02-28T21:18:14.678Z,34.92
2023-02-28T21:20:41.021Z,35.03
2023-02-28T21:23:07.365Z,35.12
2023-02-28T21:25:33.707Z,34.43
2023-02-28T21:28:00.015Z,35.98
2023-02-28T21:30:26.313Z,35.17
2023-02-28T21:32:52.620Z,36.10
2023-02-28T21:35:18.988Z,35.40
2023-02-28T21:37:45.290Z,36.09
2023-02-28T21:40:11.577Z,36.01
2023-02-28T21:42:37.875Z,35.47
2023-02-28T21:45:04.168Z,36.62
2023-02-28T21:47:30.476Z,36.48
2023-02-28T21:49:56.791Z,37.11
2023-02-28T21:52:23.091Z,37.46
2023-02-28T21:54:49.382Z,36.72
2023-02-28T21:57:15.700Z,37.48
2023-02-28T21:59:42.286Z,36.77
2023-02-28T22:02:08.560Z,37.12
2023-02-28T22:04:34.874Z,38.18
2023-02-28T22:07:01.164Z,37.64
2023-02-28T22:09:27.526Z,37.70
2023-02-28T22:11:53.858Z,38.45
2023-02-28T22:14:20.144Z,38.34
2023-02-28T22:16:55.157Z,37.30
2023-02-28T22:19:21.889Z,39.08
2023-02-28T22:21:48.179Z,38.75
2023-02-28T22:24:14.487Z,38.49
2023-02-28T22:26:40.813Z,38.99
2023-02-28T22:29:07.106Z,38.09
2023-02-28T22:31:33.470Z,39.99
2023-02-28T22:33:59.864Z,39.66
2023-02-28T22:36:26.168Z,39.76
2023-02-28T22:38:52.456Z,39.61
2023-02-28T22:41:18.766Z,39.52
2023-02-28T22:43:45.068Z,39.74
2023-02-28T22:46:11.544Z,39.65
2023-02-28T22:48:37.898Z,39.81
2023-02-28T22:51:04.194Z,39.46
2023-02-28T22:53:30.470Z,40.12
2023-02-28T22:55:56.806Z,39.87
2023-02-28T22:58:23.186Z,38.57
2023-02-28T23:00:49.481Z,38.26
2023-02-28T23:03:15.787Z,40.58
2023-02-28T23:05:42.074Z,39.58
2023-02-28T23:08:08.366Z,39.80
2023-02-28T23:10:34.675Z,41.44
2023-02-28T23:13:00.953Z,40.64
2023-02-28T23:15:27.246Z,40.07
2023-02-28T23:17:53.556Z,38.79
2023-02-28T23:20:19.839Z,40.87
2023-02-28T23:22:46.125Z,40.64
2023-02-28T23:25:12.436Z,40.23
2023-02-28T23:27:38.738Z,39.45
2023-02-28T23:30:05.014Z,39.20
2023-02-28T23:32:31.362Z,38.82
2023-02-28T23:34:57.661Z,40.22
2023-02-28T23:37:23.962Z,39.57
2023-02-28T23:39:50.263Z,40.47
2023-02-28T23:42:16.559Z,40.56
2023-02-28T23:44:42.860Z,40.43
2023-02-28T23:47:09.160Z,39.39
2023-02-28T23:49:35.463Z,40.29
2023-02-28T23:52:01.771Z,40.21
2023-02-28T23:54:28.084Z,41.35
2023-02-28T23:56:54.385Z,40.97
2023-02-28T23:59:20.677Z,39.69
